Tiempo atmosférico en la estación meteorológica de Benamejí, Córdoba (465 m.)



Fecha
DESCASC
Temp. máxima en grados centígrados (hora)
DESCASC
Temp. mínima en grados centígrados (hora)
DESCASC
Temp. media en grados centígrados
DESCASC
Racha de viento máxima en m/sg (hora)
DESCASC
Velocidad máxima media en intervalos de 10 minutos(hora)
DESCASC
Precipitaciones diarias en mm
DESCASC
Precipitaciones de 00:00 a 06:00 en mm
DESCASC
Precipitaciones de 06:00 a 12:00 en mm
DESCASC
Precipitaciones de 12:00 a 18:00 en mm
DESCASC
Precipitaciones de 18:00 a 24:00 en mm
DESCASC
28-12-2019 20.3 (15:30) 8 (00:00) 14.1 6.94 (23:50) 5 (23:50) 0 0 0 0 0
24-01-2020 12.9 (13:20) 6.7 (00:00) 9.8 9.17 (02:00) 5.83 (02:00) 14.4 7.8 0 0.2 6.4
21-01-2020 9.9 (15:50) 3.8 (00:00) 6.8 6.67 (09:50) 3.89 (09:50) 0 0 0 0 0
20-01-2020 9.1 (16:10) 2.5 (00:00) 5.8 13.89 (14:50) 7.5 (00:10) 0 0 0 0 0
19-01-2020 12.6 (00:00) 5.2 (00:00) 8.9 14.72 (16:10) 8.33 (01:00) 0.6 0.2 0 0.4 0
17-01-2020 14.4 (15:40) 4.9 (00:00) 9.6 5 (06:30) 3.89 (06:20) 0 0 0 0 0
16-01-2020 18.1 (15:10) 4.1 (00:00) 11.1 6.11 (15:40) 3.89 (11:00) 0 0 0 0 0
15-01-2020 17.2 (16:00) 3.3 (00:00) 10.3 5.28 (07:10) 3.89 (07:10) 0 0 0 0 0
14-01-2020 12.5 (14:30) 1.9 (00:00) 7.2 5.28 (13:50) 3.61 (04:40) 0 0 0 0 0
13-01-2020 14.7 (15:40) 2.4 (00:00) 8.5 4.17 (07:40) 3.61 (07:40) 0 0 0 0 0
12-01-2020 14.4 (16:10) 2.5 (00:00) 8.4 4.72 (06:00) 3.89 (05:50) 0 0 0 0 0
11-01-2020 15 (16:20) 3 (00:00) 9 4.44 (21:50) 3.61 (20:30) 0 0 0 0 0
10-01-2020 13.4 (16:20) 5.1 (00:00) 9.2 10.28 (16:40) 6.39 (16:30) 0 0 0 0 0
08-01-2020 17.7 (16:10) 3.2 (00:00) 10.5 5.83 (11:10) 4.72 (11:10) 0 0 0 0 0
27-12-2019 20.8 (15:30) 10.2 (00:00) 15.5 5 (21:50) 4.17 (22:30) 0 0 0 0 0
29-12-2019 16.8 (15:20) 6.6 (00:00) 11.7 7.22 (18:30) 5 (18:30) 0 0 0 0 0
30-12-2019 -- (--) -- (--) -- -- (--) -- (--) -- 0 0 -- 0
31-12-2019 16.3 (15:30) 4.5 (00:00) 10.4 6.94 (15:10) 4.44 (15:20) 0 0 0 0 0
01-01-2020 16.7 (15:30) 3.9 (00:00) 10.3 3.33 (00:10) 2.22 (23:50) 0 0 0 0 0
02-01-2020 15.2 (13:50) 4.3 (00:00) 9.8 5 (04:40) 3.06 (04:40) 0 0 0 0 0
03-01-2020 11.7 (14:00) 3.4 (00:00) 7.5 5 (14:20) 3.33 (14:10) 0 0 0 0 0
04-01-2020 13.9 (15:10) 6.3 (00:00) 10.1 4.72 (12:10) 2.5 (12:00) 0 0 0 0 0
05-01-2020 15.8 (17:00) 5.6 (00:00) 10.7 5.28 (18:40) 3.89 (18:40) 0 0 0 0 0
06-01-2020 15.2 (16:10) 3.1 (00:00) 9.1 4.72 (02:20) 3.61 (02:20) 0 0 0 0 0
07-01-2020 17.9 (16:20) 3.5 (00:00) 10.7 4.72 (11:30) 3.33 (11:20) 0 0 0 0 0
09-01-2020 14.9 (15:40) 4.2 (00:00) 9.5 4.72 (14:00) 3.33 (17:10) 0 0 0 0 0
25-01-2020 11.2 (12:10) 7.8 (00:00) 9.5 8.33 (16:20) 5.56 (16:40) 6.2 4 0.4 1.8 0
18-01-2020 12.6 (23:59) 6.5 (00:00) 9.6 8.61 (22:00) 6.67 (20:40) 4.4 0 1.2 0.4 2.8
22-01-2020 10.4 (14:40) 5.7 (00:00) 8 6.67 (15:10) 3.89 (15:00) 6.4 4 2.2 0.2 0
23-01-2020 8 (04:00) 6.5 (00:00) 7.3 7.5 (08:20) 4.72 (15:00) 37.6 2.8 16.2 9.6 9

Gráficas

Temp. máximas Temp. mínimas Temp. medias Precipitaciones Rachas de viento máximas Velocidades máximas media en intervalos de 10 minutos

Datos horarios

Fecha y hora oficial Temperatura (ºC) Velocidad del viento (km/h) Dirección del viento Racha (km/h) Dirección de racha Precipitación (mm) Presión (hPa) Tendencia (hPa) Humedad (%)
2020-01-25 23:00:00 8.5 7 Sudoeste 14 Sur 0 -- -- 89
2020-01-25 22:00:00 8.6 12 Sur 17 Sur 0 -- -- 87
2020-01-25 21:00:00 8.7 10 Sur 20 Sur 0 -- -- 86
2020-01-25 20:00:00 9.1 7 Sur 17 Sur 0 -- -- 87
2020-01-25 19:00:00 9.3 10 Sur 23 Sur 0 -- -- 86
2020-01-25 18:00:00 10.1 12 Sur 21 Sur 0 -- -- 84
2020-01-25 17:00:00 9.8 17 Sur 30 Sur 0 -- -- 86
2020-01-25 16:00:00 10.1 14 Sur 25 Sur 0 -- -- 90
2020-01-25 15:00:00 9.7 13 Sur 21 Sur 0.6 -- -- 93
2020-01-25 14:00:00 9.5 13 Sur 26 Sur 1.2 -- -- 91
2020-01-25 13:00:00 10.8 13 Sur 24 Sur 0 -- -- 78
2020-01-25 12:00:00 11.1 16 Sur 28 Sudeste 0 -- -- 79
2020-01-25 11:00:00 10.6 13 Sur 22 Sudeste 0 -- -- 84
2020-01-25 10:00:00 8.8 10 Sudeste 22 Sudeste 0 -- -- 90
2020-01-25 09:00:00 8.6 14 Sudeste 23 Sudeste 0 -- -- 91
2020-01-25 08:00:00 8.2 12 Sudeste 17 Sudeste 0 -- -- 91
2020-01-25 07:00:00 8.2 8 Sudeste 24 Sudeste 0.4 -- -- 93
2020-01-25 06:00:00 8.5 15 Sudeste 26 Sudeste 1.6 -- -- 94
2020-01-25 05:00:00 8 10 Este 14 Este 0.8 -- -- 93
2020-01-25 04:00:00 7.9 5 Este 18 Sudeste 1.2 -- -- 90
2020-01-25 03:00:00 8.1 14 Sudeste 24 Sudeste 0.2 -- -- 86
2020-01-25 02:00:00 8.4 17 Sudeste 27 Sudeste 0.2 -- -- 89
2020-01-25 01:00:00 8.5 5 Sur 26 Sudeste 0 -- -- 90
2020-01-25 00:00:00 8.8 12 Sur 22 Sudeste 0.8 -- -- 93
2020-01-24 23:00:00 8.8 11 Sur 17 Sudeste 1.6 -- -- 93
2020-01-24 22:00:00 8.6 11 Este 18 Sudeste 0 -- -- 93
2020-01-24 21:00:00 8.7 9 Sur 14 Sur 2.6 -- -- 93
2020-01-24 20:00:00 9.4 8 Sudoeste 12 Sudoeste 1.4 -- -- 88
2020-01-24 19:00:00 10.7 6 Sudeste 12 Sudeste 0 -- -- 75
2020-01-24 18:00:00 11.3 12 Sudeste 25 Sudeste 0.2 -- -- 71
2020-01-24 17:00:00 11.7 14 Sudeste 21 Sudeste 0 -- -- 72
2020-01-24 16:00:00 11.9 13 Sudeste 31 Sur 0 -- -- 71
2020-01-24 15:00:00 11.9 15 Sur 29 Sudeste 0 -- -- 70
2020-01-24 14:00:00 12.2 17 Sur 30 Sur 0 -- -- 71
2020-01-24 13:00:00 12.2 14 Sur 27 Sur 0 -- -- 73
2020-01-24 12:00:00 11.6 14 Sudeste 24 Sudeste 0 -- -- 79
2020-01-24 11:00:00 9.1 6 Nordeste 9 Nordeste 0 -- -- 88
2020-01-24 10:00:00 7.8 4 Este 9 Este 0 -- -- 93
2020-01-24 09:00:00 6.9 7 Este 13 Nordeste 0 -- -- 92
2020-01-24 08:00:00 7 9 Nordeste 12 Nordeste 0 -- -- 92
2020-01-24 07:00:00 7.2 6 Este 12 Este 0 -- -- 93
2020-01-24 06:00:00 6.9 7 Este 17 Este 0 -- -- 95
2020-01-24 05:00:00 6.9 7 Este 14 Este 0.2 -- -- 94
2020-01-24 04:00:00 6.7 5 Este 19 Sudeste 0.6 -- -- 95
2020-01-24 03:00:00 6.9 15 Sudeste 28 Sudeste 2.2 -- -- 95
2020-01-24 02:00:00 7.1 21 Sur 33 Sur 1.2 -- -- 96
2020-01-24 01:00:00 7.3 12 Sur 27 Sur 3.6 -- -- 96
2020-01-24 00:00:00 7.6 15 Sur 22 Sur 5 -- -- 96
2020-01-23 23:00:00 7.8 9 Sur 16 Oeste 3.6 -- -- 96
2020-01-23 22:00:00 7.6 3 Noroeste 5 Nordeste 0.2 -- -- 95
2020-01-23 21:00:00 7.6 3 Sudoeste 4 Sur 0 -- -- 95
2020-01-23 20:00:00 7.6 2 Sur 10 Este 0 -- -- 95
2020-01-23 19:00:00 7.6 5 Este 10 Nordeste 0.2 -- -- 95
2020-01-23 18:00:00 7.9 9 Sudeste 16 Sudeste 0.8 -- -- 94
2020-01-23 17:00:00 7.9 12 Sudeste 20 Sudeste 0.2 -- -- 94
2020-01-23 16:00:00 7.9 12 Sudeste 25 Sudeste 1.6 -- -- 94
2020-01-23 15:00:00 7.4 17 Sudeste 26 Sudeste 4.6 -- -- 93
2020-01-23 14:00:00 7.7 12 Sur 15 Sur 1.6 -- -- 95
2020-01-23 13:00:00 7.8 6 Este 14 Sudeste 0.8 -- -- 94
2020-01-23 12:00:00 7.3 12 Sudeste 25 Sudeste 5.6 -- -- 95
2020-01-23 11:00:00 6.7 9 Sur 17 Sudeste 5.8 -- -- 95
2020-01-23 10:00:00 6.5 12 Sudeste 21 Sudeste 2 -- -- 94
2020-01-23 09:00:00 6.6 5 Este 27 Este 0.6 -- -- 94
2020-01-23 08:00:00 6.6 14 Sudeste 22 Sudeste 1.2 -- -- 94
2020-01-23 07:00:00 6.7 4 Este 21 Este 1 -- -- 93
2020-01-23 06:00:00 7 9 Sudeste 26 Sudeste 2.6 -- -- 91
2020-01-23 05:00:00 7.2 5 Este 15 Sudeste 0 -- -- 85
2020-01-23 04:00:00 8 13 Sudeste 19 Sudeste 0.2 -- -- 85
2020-01-23 03:00:00 7.5 12 Sudeste 18 Este 0 -- -- 85
2020-01-23 02:00:00 7.8 14 Sudeste 21 Este 0 -- -- 85
2020-01-23 01:00:00 7.5 11 Sudeste 15 Sudeste 0 -- -- 87
2020-01-23 00:00:00 7.4 7 Sudeste 12 Sudeste 0 -- -- 84
2020-01-22 23:00:00 7.1 5 Este 10 Nordeste 0 -- -- 81
2020-01-22 22:00:00 7.2 6 Este 17 Sudeste 0 -- -- 80
2020-01-22 21:00:00 7.3 6 Sudeste 15 Sudeste 0 -- -- 80
2020-01-22 20:00:00 7.9 9 Sudeste 16 Sudeste 0 -- -- 81
2020-01-22 19:00:00 8.6 3 Sudeste 10 Sudeste 0 -- -- 81
2020-01-22 18:00:00 9.1 2 Sudeste 9 Sur 0 -- -- 83
2020-01-22 17:00:00 9.2 6 Sur 20 Sudeste 0 -- -- 83
2020-01-22 16:00:00 10.1 12 Sudeste 24 Sudeste 0 -- -- 72
2020-01-22 15:00:00 10.3 14 Sudeste 23 Sudeste 0 -- -- 71
2020-01-22 14:00:00 9.8 8 Este 18 Nordeste 0 -- -- 79
2020-01-22 13:00:00 7.9 6 Nordeste 15 Nordeste 0.2 -- -- 89
2020-01-22 12:00:00 7.3 4 Este 12 Sudeste 0.2 -- -- 92
2020-01-22 11:00:00 6.5 5 Este 8 Nordeste 0 -- -- 91
2020-01-22 10:00:00 6.1 0 Calma 14 Sudeste 0 -- -- 93
2020-01-22 09:00:00 6.2 10 Sudeste 17 Sudeste 0.4 -- -- 90
2020-01-22 08:00:00 6 9 Sudeste 13 Sudeste 0 -- -- 93
2020-01-22 07:00:00 5.8 10 Este 16 Este 1.6 -- -- 94
2020-01-22 06:00:00 5.9 5 Sudeste 7 Sudeste 1.4 -- -- 93
2020-01-22 05:00:00 6.1 6 Sudeste 10 Este 1.6 -- -- 92
2020-01-22 04:00:00 6.4 7 Este 11 Este 0.6 -- -- 89
2020-01-22 03:00:00 6.7 6 Este 14 Este 0.2 -- -- 87
2020-01-22 02:00:00 6.7 8 Sudeste 14 Este 0 -- -- 87
2020-01-22 01:00:00 6.7 7 Este 12 Este 0.2 -- -- 85
2020-01-22 00:00:00 7 7 Este 14 Este 0 -- -- 82
2020-01-21 23:00:00 7.3 5 Este 14 Sudeste 0 -- -- 80
2020-01-21 22:00:00 7.6 9 Sudeste 15 Sudeste 0 -- -- 83
2020-01-21 21:00:00 7.5 8 Sudeste 10 Sudeste 0 -- -- 81
2020-01-21 20:00:00 8.1 2 Norte 5 Norte 0 -- -- 76
2020-01-21 19:00:00 8.5 3 Oeste 5 Oeste 0 -- -- 74
2020-01-21 18:00:00 8.9 4 Noroeste 10 Oeste 0 -- -- 71
2020-01-21 17:00:00 9.3 6 Oeste 12 Sudoeste 0 -- -- 69
2020-01-21 16:00:00 9.9 3 Oeste 8 Norte 0 -- -- 66
2020-01-21 15:00:00 9.6 6 Norte 12 Nordeste 0 -- -- 66
2020-01-21 14:00:00 9.2 8 Nordeste 15 Norte 0 -- -- 66
2020-01-21 13:00:00 8.7 10 Norte 15 Norte 0 -- -- 68
2020-01-21 12:00:00 8.3 4 Norte 17 Nordeste 0 -- -- 68
2020-01-21 11:00:00 6.9 10 Nordeste 24 Norte 0 -- -- 76
2020-01-21 10:00:00 6 12 Norte 24 Norte 0 -- -- 78
2020-01-21 09:00:00 4.5 10 Norte 18 Norte 0 -- -- 83
2020-01-21 08:00:00 4 0 Calma 12 Norte 0 -- -- 84
2020-01-21 07:00:00 3.9 6 Norte 12 Norte 0 -- -- 84
2020-01-21 06:00:00 4.1 2 Oeste 10 Nordeste 0 -- -- 82
2020-01-21 05:00:00 4.5 0 Calma 9 Norte 0 -- -- 81
2020-01-21 04:00:00 5.2 6 Norte 15 Norte 0 -- -- 78
2020-01-21 03:00:00 5.9 10 Norte 18 Nordeste 0 -- -- 76
2020-01-21 02:00:00 5.4 11 Norte 18 Norte 0 -- -- 78
2020-01-21 01:00:00 5.8 12 Nordeste 21 Nordeste 0 -- -- 76
2020-01-21 00:00:00 6.2 11 Nordeste 20 Nordeste 0 -- -- 75
2020-01-20 23:00:00 6.8 10 Nordeste 20 Nordeste 0 -- -- 73
2020-01-20 22:00:00 7.4 13 Nordeste 25 Norte 0 -- -- 69
2020-01-20 21:00:00 7.7 12 Nordeste 22 Nordeste 0 -- -- 67
2020-01-20 20:00:00 7.9 13 Nordeste 32 Nordeste 0 -- -- 65
2020-01-20 19:00:00 8.2 13 Nordeste 29 Este 0 -- -- 65
2020-01-20 18:00:00 8.5 9 Norte 22 Norte 0 -- -- 65
2020-01-20 17:00:00 8.4 8 Norte 24 Nordeste 0 -- -- 64
2020-01-20 16:00:00 9 12 Norte 38 Norte 0 -- -- 63
2020-01-20 15:00:00 8.9 26 Nordeste 50 Nordeste 0 -- -- 61
2020-01-20 14:00:00 6.6 8 Norte 22 Nordeste 0 -- -- 69
2020-01-20 13:00:00 4.7 14 Norte 31 Norte 0 -- -- 73
2020-01-20 12:00:00 4.5 17 Nordeste 28 Nordeste 0 -- -- 74
2020-01-20 11:00:00 3.9 14 Nordeste 27 Nordeste 0 -- -- 75
2020-01-20 10:00:00 3.2 19 Nordeste 31 Norte 0 -- -- 76
2020-01-20 09:00:00 2.6 9 Nordeste 39 Norte 0 -- -- 78
2020-01-20 08:00:00 3.1 24 Nordeste 42 Nordeste 0 -- -- 75
2020-01-20 07:00:00 3.4 19 Nordeste 39 Norte 0 -- -- 72
2020-01-20 06:00:00 3 22 Norte 44 Nordeste 0 -- -- 78
2020-01-20 05:00:00 3.7 24 Nordeste 47 Nordeste 0 -- -- 78
2020-01-20 04:00:00 4.6 22 Nordeste 35 Nordeste 0 -- -- 74
2020-01-20 03:00:00 4.5 20 Nordeste 40 Nordeste 0 -- -- 77
2020-01-20 02:00:00 4.8 23 Nordeste 37 Nordeste 0 -- -- 77
2020-01-20 01:00:00 5 19 Nordeste 40 Nordeste 0 -- -- 76
2020-01-20 00:00:00 5.3 28 Norte 43 Norte 0 -- -- 76
2020-01-19 23:00:00 5.3 23 Nordeste 41 Nordeste 0 -- -- 78
2020-01-19 22:00:00 5.7 19 Nordeste 42 Norte 0 -- -- 77
2020-01-19 21:00:00 6.6 15 Norte 28 Nordeste 0 -- -- 77
2020-01-19 20:00:00 6.9 11 Norte 36 Norte 0 -- -- 79
2020-01-19 19:00:00 7.7 18 Norte 37 Norte 0 -- -- 75
2020-01-19 18:00:00 7.8 19 Norte 39 Norte 0.2 -- -- 78
2020-01-19 17:00:00 7.4 12 Norte 53 Norte 0.2 -- -- 81
2020-01-19 16:00:00 9.1 17 Norte 37 Norte 0 -- -- 70
2020-01-19 15:00:00 8.9 25 Norte 45 Noroeste 0 -- -- 70
2020-01-19 14:00:00 9.6 24 Norte 39 Noroeste 0 -- -- 74
2020-01-19 13:00:00 9.2 17 Norte 28 Norte 0 -- -- 77
2020-01-19 12:00:00 8.5 15 Noroeste 24 Noroeste 0 -- -- 85
2020-01-19 11:00:00 7.8 15 Noroeste 31 Oeste 0 -- -- 90
2020-01-19 10:00:00 6.8 18 Noroeste 33 Noroeste 0 -- -- 91
2020-01-19 09:00:00 6.9 15 Noroeste 27 Oeste 0 -- -- 92
2020-01-19 08:00:00 7.3 14 Oeste 28 Oeste 0 -- -- 94
2020-01-19 07:00:00 7.7 20 Noroeste 30 Noroeste 0 -- -- 93
2020-01-19 06:00:00 8.3 15 Noroeste 32 Oeste 0.2 -- -- 93
2020-01-19 05:00:00 8.9 15 Oeste 27 Noroeste 0 -- -- 94
2020-01-19 04:00:00 9.1 13 Oeste 25 Oeste 0 -- -- 94
2020-01-19 03:00:00 9.4 9 Oeste 30 Noroeste 0 -- -- 94
2020-01-19 02:00:00 10.4 14 Oeste 33 Oeste 0 -- -- 95
2020-01-19 01:00:00 11.3 30 Oeste 41 Noroeste 0 -- -- 94
2020-01-19 00:00:00 12.6 15 Oeste 28 Oeste 0.2 -- -- 96
2020-01-18 23:00:00 11.3 17 Sudoeste 29 Sur 1 -- -- 96
2020-01-18 22:00:00 10.7 24 Sur 31 Sur 0.2 -- -- 95
2020-01-18 21:00:00 10.4 21 Sur 30 Sur 1.4 -- -- 93
2020-01-18 20:00:00 11 17 Sur 21 Sur 0 -- -- 85
2020-01-18 19:00:00 11.3 14 Sur 23 Sur 0 -- -- 82
2020-01-18 18:00:00 11 9 Sudeste 18 Sur 0 -- -- 88
2020-01-18 17:00:00 11.7 8 Sur 17 Sur 0 -- -- 80
2020-01-18 16:00:00 12.3 10 Sur 20 Sudoeste 0 -- -- 74
2020-01-18 15:00:00 11.7 4 Sudeste 10 Este 0 -- -- 82
2020-01-18 14:00:00 11.1 6 Este 11 Este 0 -- -- 89
2020-01-18 13:00:00 8.5 8 Nordeste 12 Este 0.4 -- -- 94
2020-01-18 12:00:00 8 7 Este 20 Sudeste 0.8 -- -- 89
2020-01-18 11:00:00 7.9 2 Sudeste 10 Este 0.4 -- -- 90
2020-01-18 10:00:00 7.8 3 Sudeste 12 Este 0 -- -- 81
2020-01-18 09:00:00 7.4 6 Nordeste 10 Nordeste 0 -- -- 81
2020-01-18 08:00:00 7 4 Este 10 Nordeste 0 -- -- 83
2020-01-18 07:00:00 6.8 2 Sudeste 16 Nordeste 0 -- -- 83
2020-01-18 06:00:00 7.1 8 Este 16 Este 0 -- -- 83
2020-01-18 05:00:00 7 6 Este 10 Nordeste 0 -- -- 84
2020-01-18 04:00:00 7.6 5 Sudeste 13 Sudeste 0 -- -- 82
2020-01-18 03:00:00 7.8 9 Sudeste 20 Sudeste 0 -- -- 88
2020-01-18 02:00:00 7.1 11 Sudeste 14 Sudeste 0 -- -- 87
2020-01-18 01:00:00 7.8 2 Sudeste 10 Este 0 -- -- 86
2020-01-18 00:00:00 8.7 4 Este 9 Nordeste 0 -- -- 84
2020-01-17 23:00:00 8.4 3 Nordeste 12 Nordeste 0 -- -- 85
2020-01-17 22:00:00 9.4 7 Nordeste 12 Este 0 -- -- 74
2020-01-17 21:00:00 10.4 6 Este 10 Este 0 -- -- 68
2020-01-17 20:00:00 11.6 4 Noroeste 4 Noroeste 0 -- -- 65
2020-01-17 19:00:00 12 0 Calma 9 Oeste 0 -- -- 61
2020-01-17 18:00:00 12.9 7 Noroeste 10 Oeste 0 -- -- 58
2020-01-17 17:00:00 14.4 3 Norte 8 Norte 0 -- -- 57
2020-01-17 16:00:00 14.2 4 Nordeste 9 Nordeste 0 -- -- 57
2020-01-17 15:00:00 13.2 5 Norte 10 Nordeste 0 -- -- 59
2020-01-17 14:00:00 12 4 Este 13 Nordeste 0 -- -- 57
2020-01-17 13:00:00 9.8 10 Nordeste 14 Nordeste 0 -- -- 60
2020-01-17 12:00:00 8.6 12 Nordeste 18 Nordeste 0 -- -- 59
2020-01-17 11:00:00 7.4 12 Nordeste 17 Nordeste 0 -- -- 61
2020-01-17 10:00:00 6.2 10 Nordeste 15 Nordeste 0 -- -- 67
2020-01-17 09:00:00 5.7 12 Nordeste 17 Nordeste 0 -- -- 67
2020-01-17 08:00:00 5.4 5 Este 15 Este 0 -- -- 69
2020-01-17 07:00:00 5.1 5 Este 18 Nordeste 0 -- -- 71
2020-01-17 06:00:00 5 8 Nordeste 17 Nordeste 0 -- -- 72
2020-01-17 05:00:00 5.4 7 Este 15 Este 0 -- -- 72
2020-01-17 04:00:00 6.4 9 Este 14 Nordeste 0 -- -- 67
2020-01-17 03:00:00 6.5 8 Este 10 Nordeste 0 -- -- 66
2020-01-17 02:00:00 7.8 3 Sudeste 11 Sudeste 0 -- -- 58
2020-01-17 01:00:00 8.3 6 Sudeste 9 Nordeste 0 -- -- 56
2020-01-17 00:00:00 8.9 0 Calma 7 Sur 0 -- -- 55
2020-01-16 23:00:00 9.4 7 Sur 11 Sur 0 -- -- 54
2020-01-16 22:00:00 10.1 5 Sur 10 Sudeste 0 -- -- 46
2020-01-16 21:00:00 11.1 8 Sudeste 9 Sudeste 0 -- -- 37
2020-01-16 20:00:00 12 2 Sur 5 Sudoeste 0 -- -- 34
2020-01-16 19:00:00 12.7 2 Sudoeste 16 Oeste 0 -- -- 32
2020-01-16 18:00:00 15 9 Oeste 15 Noroeste 0 -- -- 28
2020-01-16 17:00:00 16.4 9 Noroeste 21 Oeste 0 -- -- 27
2020-01-16 16:00:00 18 9 Sudoeste 22 Oeste 0 -- -- 23
2020-01-16 15:00:00 18 6 Sur 19 Sur 0 -- -- 24
2020-01-16 14:00:00 17.2 10 Sur 18 Sur 0 -- -- 24
2020-01-16 13:00:00 14.1 6 Nordeste 13 Nordeste 0 -- -- 36
2020-01-16 12:00:00 11.1 11 Nordeste 19 Nordeste 0 -- -- 43
2020-01-16 11:00:00 8 14 Nordeste 18 Nordeste 0 -- -- 52
2020-01-16 10:00:00 5.6 7 Nordeste 12 Nordeste 0 -- -- 62
2020-01-16 09:00:00 4.6 5 Este 11 Este 0 -- -- 64
2020-01-16 08:00:00 4.2 10 Nordeste 16 Nordeste 0 -- -- 66
2020-01-16 07:00:00 4.2 7 Este 13 Este 0 -- -- 67
2020-01-16 06:00:00 4.5 8 Nordeste 12 Este 0 -- -- 67
2020-01-16 05:00:00 4.5 6 Nordeste 9 Nordeste 0 -- -- 67
2020-01-16 04:00:00 4.7 5 Este 10 Nordeste 0 -- -- 68
2020-01-16 03:00:00 5.5 9 Este 12 Nordeste 0 -- -- 66
2020-01-16 02:00:00 5.4 5 Este 17 Nordeste 0 -- -- 67
2020-01-16 01:00:00 5.9 14 Nordeste 17 Nordeste 0 -- -- 65
2020-01-16 00:00:00 6.6 11 Nordeste 14 Nordeste 0 -- -- 61
2020-01-15 23:00:00 7.9 11 Nordeste 12 Nordeste 0 -- -- 57
2020-01-15 22:00:00 8.6 9 Nordeste 11 Sudeste 0 -- -- 55
2020-01-15 21:00:00 11.2 3 Sudeste 7 Este 0 -- -- 48
2020-01-15 20:00:00 11.6 4 Este 8 Noroeste 0 -- -- 50
2020-01-15 19:00:00 12.3 5 Noroeste 10 Noroeste 0 -- -- 46
2020-01-15 18:00:00 13.9 5 Noroeste 10 Noroeste 0 -- -- 37
2020-01-15 17:00:00 16.6 6 Oeste 12 Sudoeste 0 -- -- 28
2020-01-15 16:00:00 17.2 7 Sudoeste 13 Noroeste 0 -- -- 26
2020-01-15 15:00:00 16.1 5 Este 12 Norte 0 -- -- 31
2020-01-15 14:00:00 14.8 3 Nordeste 10 Nordeste 0 -- -- 35
2020-01-15 13:00:00 12.8 6 Nordeste 12 Este 0 -- -- 44
2020-01-15 12:00:00 10.5 6 Nordeste 10 Norte 0 -- -- 51
2020-01-15 11:00:00 7.6 5 Nordeste 8 Nordeste 0 -- -- 64
2020-01-15 10:00:00 5.8 3 Este 14 Nordeste 0 -- -- 74
2020-01-15 09:00:00 3.9 7 Este 15 Este 0 -- -- 81
2020-01-15 08:00:00 3.5 10 Nordeste 19 Nordeste 0 -- -- 84
2020-01-15 07:00:00 3.4 13 Nordeste 17 Nordeste 0 -- -- 86
2020-01-15 06:00:00 3.6 10 Nordeste 13 Este 0 -- -- 85
2020-01-15 05:00:00 3.6 9 Nordeste 14 Nordeste 0 -- -- 86
2020-01-15 04:00:00 3.7 4 Este 13 Este 0 -- -- 86
2020-01-15 03:00:00 4 6 Este 14 Nordeste 0 -- -- 84
2020-01-15 02:00:00 4 9 Nordeste 13 Nordeste 0 -- -- 79
2020-01-15 01:00:00 5.2 8 Este 12 Este 0 -- -- 71
2020-01-15 00:00:00 5.7 4 Sur 8 Sur 0 -- -- 67
2020-01-14 23:00:00 6.7 3 Este 9 Este 0 -- -- 63
2020-01-14 22:00:00 7.2 6 Este 9 Este 0 -- -- 61
2020-01-14 21:00:00 8.3 0 Calma 8 Este 0 -- -- 55
2020-01-14 20:00:00 9.3 3 Nordeste 4 Este 0 -- -- 51
2020-01-14 19:00:00 9.6 0 Calma 7 Este 0 -- -- 50
2020-01-14 18:00:00 10.8 4 Nordeste 6 Nordeste 0 -- -- 46
2020-01-14 17:00:00 11.6 2 Norte 9 Norte 0 -- -- 45
2020-01-14 16:00:00 11.4 3 Noroeste 15 Noroeste 0 -- -- 47
2020-01-14 15:00:00 11.9 3 Norte 10 Oeste 0 -- -- 47
2020-01-14 14:00:00 11.5 6 Noroeste 19 Oeste 0 -- -- 50
2020-01-14 13:00:00 10.1 7 Norte 13 Norte 0 -- -- 55
2020-01-14 12:00:00 9.3 0 Calma 6 Nordeste 0 -- -- 57
2020-01-14 11:00:00 6.1 4 Nordeste 8 Nordeste 0 -- -- 68
2020-01-14 10:00:00 3.3 4 Nordeste 12 Este 0 -- -- 81
2020-01-14 09:00:00 2.2 9 Nordeste 15 Este 0 -- -- 86
2020-01-14 08:00:00 2 8 Nordeste 11 Nordeste 0 -- -- 88
2020-01-14 07:00:00 2 5 Nordeste 15 Este 0 -- -- 86
2020-01-14 06:00:00 2.3 12 Nordeste 15 Nordeste 0 -- -- 88
2020-01-14 05:00:00 2.5 13 Nordeste 17 Nordeste 0 -- -- 90
2020-01-14 04:00:00 3.1 12 Nordeste 15 Nordeste 0 -- -- 85
2020-01-14 03:00:00 3.4 7 Este 14 Nordeste 0 -- -- 81
2020-01-14 02:00:00 4 10 Nordeste 14 Nordeste 0 -- -- 79
2020-01-14 01:00:00 4.8 9 Este 12 Este 0 -- -- 70
2020-01-14 00:00:00 6.5 7 Sudeste 11 Sudeste 0 -- -- 61
2020-01-13 23:00:00 6.9 5 Este 7 Este 0 -- -- 60
2020-01-13 22:00:00 7.5 2 Sudoeste -- -- 0 -- -- 56
2020-01-13 21:00:00 8.3 3 Norte 6 Este 0 -- -- 54
2020-01-13 20:00:00 8.8 4 Nordeste 8 Noroeste 0 -- -- 52
2020-01-13 19:00:00 9.4 5 Noroeste 12 Noroeste 0 -- -- 49
2020-01-13 18:00:00 11.4 8 Noroeste 13 Noroeste 0 -- -- 44
2020-01-13 17:00:00 12.9 8 Noroeste 13 Noroeste 0 -- -- 43
2020-01-13 16:00:00 14.3 8 Noroeste 15 Noroeste 0 -- -- 34
2020-01-13 15:00:00 14 4 Noroeste 12 Noroeste 0 -- -- 35
2020-01-13 14:00:00 13.5 4 Oeste 10 Oeste 0 -- -- 44
2020-01-13 13:00:00 11.4 6 Norte 11 Norte 0 -- -- 49
2020-01-13 12:00:00 9.4 4 Norte 8 Este 0 -- -- 52
2020-01-13 11:00:00 6.6 6 Este 11 Nordeste 0 -- -- 64
2020-01-13 10:00:00 4.6 6 Este 13 Nordeste 0 -- -- 74
2020-01-13 09:00:00 2.5 4 Este 14 Nordeste 0 -- -- 87
2020-01-13 08:00:00 3 10 Este 15 Nordeste 0 -- -- 86
2020-01-13 07:00:00 2.9 10 Nordeste 13 Nordeste 0 -- -- 86
2020-01-13 06:00:00 3.9 3 Nordeste 8 Nordeste 0 -- -- 83
2020-01-13 05:00:00 3.6 7 Nordeste 9 Nordeste 0 -- -- 83
2020-01-13 04:00:00 4.1 6 Este 11 Este 0 -- -- 83
2020-01-13 03:00:00 4.9 5 Sudeste 10 Este 0 -- -- 80
2020-01-13 02:00:00 5 9 Nordeste 12 Nordeste 0 -- -- 77
2020-01-13 01:00:00 5.5 6 Este 12 Nordeste 0 -- -- 71
2020-01-13 00:00:00 6.4 3 Sur 8 Este 0 -- -- 65
2020-01-12 23:00:00 7.6 5 Este 9 Este 0 -- -- 60
2020-01-12 22:00:00 7.6 8 Sudeste 11 Sudeste 0 -- -- 58
2020-01-12 21:00:00 8.4 2 Noroeste 5 Sur 0 -- -- 55
2020-01-12 20:00:00 9.1 3 Oeste 8 Noroeste 0 -- -- 51
2020-01-12 19:00:00 10 8 Noroeste 13 Oeste 0 -- -- 49
2020-01-12 18:00:00 12.2 9 Noroeste 14 Noroeste 0 -- -- 44
2020-01-12 17:00:00 13.8 5 Noroeste 10 Noroeste 0 -- -- 36
2020-01-12 16:00:00 14 6 Noroeste 13 Noroeste 0 -- -- 38
2020-01-12 15:00:00 14 5 Oeste 12 Noroeste 0 -- -- 42
2020-01-12 14:00:00 12.9 6 Noroeste 12 Oeste 0 -- -- 47
2020-01-12 13:00:00 11.8 4 Nordeste 8 Nordeste 0 -- -- 52
2020-01-12 12:00:00 9.4 5 Nordeste 13 Nordeste 0 -- -- 62
2020-01-12 11:00:00 6.2 10 Nordeste 13 Nordeste 0 -- -- 76
2020-01-12 10:00:00 3.8 10 Nordeste 15 Nordeste 0 -- -- 88
2020-01-12 09:00:00 2.7 7 Este 14 Nordeste 0 -- -- 93
2020-01-12 08:00:00 2.8 5 Nordeste 15 Este 0 -- -- 92
2020-01-12 07:00:00 3.2 12 Nordeste 17 Nordeste 0 -- -- 91
2020-01-12 06:00:00 3.6 13 Nordeste 17 Nordeste 0 -- -- 90
2020-01-12 05:00:00 3.5 5 Nordeste 13 Este 0 -- -- 90
2020-01-12 04:00:00 3.9 9 Nordeste 10 Nordeste 0 -- -- 90
2020-01-12 03:00:00 4.7 4 Nordeste 8 Nordeste 0 -- -- 80
2020-01-12 02:00:00 5.7 5 Este 9 Sur 0 -- -- 77
2020-01-12 01:00:00 6.4 6 Sudeste 11 Sur 0 -- -- 79
2020-01-12 00:00:00 6.9 4 Sudeste 10 Sudeste 0 -- -- 74
2020-01-11 23:00:00 7.3 4 Sudeste 9 Sudeste 0 -- -- 70
2020-01-11 22:00:00 7.6 9 Sur 16 Sur 0 -- -- 64
2020-01-11 21:00:00 8.2 6 Sur 15 Sur 0 -- -- 55
2020-01-11 20:00:00 10 4 Sur 8 Sur 0 -- -- 48
2020-01-11 19:00:00 11.2 4 Oeste 9 Noroeste 0 -- -- 43
2020-01-11 18:00:00 13.3 6 Noroeste 10 Noroeste 0 -- -- 37
2020-01-11 17:00:00 14.2 6 Noroeste 13 Sudoeste 0 -- -- 35
2020-01-11 16:00:00 14.3 8 Noroeste 13 Noroeste 0 -- -- 33
2020-01-11 15:00:00 14.2 6 Noroeste 13 Noroeste 0 -- -- 34
2020-01-11 14:00:00 14 3 Sudoeste 8 Noroeste 0 -- -- 35
2020-01-11 13:00:00 12.5 3 Norte 8 Nordeste 0 -- -- 39
2020-01-11 12:00:00 10.6 5 Norte 9 Este 0 -- -- 44
2020-01-11 11:00:00 8.1 5 Nordeste 10 Nordeste 0 -- -- 54
2020-01-11 10:00:00 5.5 6 Nordeste 12 Nordeste 0 -- -- 63
2020-01-11 09:00:00 3.5 4 Este 12 Nordeste 0 -- -- 69
2020-01-11 08:00:00 3.6 5 Nordeste 10 Nordeste 0 -- -- 68
2020-01-11 07:00:00 3.2 5 Nordeste 8 Nordeste 0 -- -- 69
2020-01-11 06:00:00 3.4 4 Este 12 Nordeste 0 -- -- 70
2020-01-11 05:00:00 3.6 6 Nordeste 10 Nordeste 0 -- -- 70
2020-01-11 04:00:00 4.5 7 Este 14 Nordeste 0 -- -- 66
2020-01-11 03:00:00 5.8 6 Este 12 Nordeste 0 -- -- 56
2020-01-11 02:00:00 7.2 5 Nordeste 6 Norte 0 -- -- 49
2020-01-11 01:00:00 7.1 4 Sudeste 6 Sudeste 0 -- -- 50
2020-01-11 00:00:00 7.4 4 Este 5 Nordeste 0 -- -- 51
2020-01-10 23:00:00 7.3 0 Calma 12 Nordeste 0 -- -- 50
2020-01-10 22:00:00 7.5 2 Noroeste 8 Norte 0 -- -- 50
2020-01-10 21:00:00 8.3 4 Norte 23 Norte 0 -- -- 47
2020-01-10 20:00:00 9.4 10 Norte 20 Norte 0 -- -- 45
2020-01-10 19:00:00 10.4 11 Norte 32 Norte 0 -- -- 43
2020-01-10 18:00:00 11.8 18 Norte 34 Nordeste 0 -- -- 39
2020-01-10 17:00:00 12.7 21 Norte 37 Norte 0 -- -- 40
2020-01-10 16:00:00 13.1 14 Norte 32 Noroeste 0 -- -- 60
2020-01-10 15:00:00 12.4 17 Norte 28 Norte 0 -- -- 66
2020-01-10 14:00:00 10.8 14 Noroeste 23 Norte 0 -- -- 79
2020-01-10 13:00:00 10.5 9 Noroeste 19 Noroeste 0 -- -- 82
2020-01-10 12:00:00 9.4 9 Noroeste 15 Noroeste 0 -- -- 86
2020-01-10 11:00:00 8 2 Nordeste 6 Nordeste 0 -- -- 87
2020-01-10 10:00:00 6.9 0 Calma 5 Nordeste 0 -- -- 90
2020-01-10 09:00:00 6.3 0 Calma 4 Este 0 -- -- 92
2020-01-10 08:00:00 5.7 3 Nordeste 9 Nordeste 0 -- -- 92
2020-01-10 07:00:00 5.4 7 Nordeste 9 Nordeste 0 -- -- 92
2020-01-10 06:00:00 5.7 0 Calma 5 Norte 0 -- -- 91
2020-01-10 05:00:00 5.5 0 Calma 9 Este 0 -- -- 92
2020-01-10 04:00:00 5.3 7 Este 10 Nordeste 0 -- -- 93
2020-01-10 03:00:00 5.9 5 Sur 8 Sudeste 0 -- -- 88
2020-01-10 02:00:00 6.4 5 Sur 9 Sudeste 0 -- -- 87
2020-01-10 01:00:00 7.2 7 Sudeste 9 Sudeste 0 -- -- 80
2020-01-10 00:00:00 7.5 3 Este 5 Este 0 -- -- 81
2020-01-09 23:00:00 7.8 0 Calma 5 Oeste 0 -- -- 75
2020-01-09 22:00:00 8.8 0 Calma 6 Sudeste 0 -- -- 69
2020-01-09 21:00:00 9.1 0 Calma 4 Noroeste 0 -- -- 68
2020-01-09 20:00:00 9.5 4 Noroeste 12 Noroeste 0 -- -- 67
2020-01-09 19:00:00 10 8 Noroeste 14 Noroeste 0 -- -- 67
2020-01-09 18:00:00 12.4 4 Oeste 17 Noroeste 0 -- -- 58
2020-01-09 17:00:00 14.2 10 Noroeste 16 Noroeste 0 -- -- 49
2020-01-09 16:00:00 14.4 6 Noroeste 11 Noroeste 0 -- -- 46
2020-01-09 15:00:00 14.3 4 Noroeste 12 Norte 0 -- -- 49
2020-01-09 14:00:00 14 8 Norte 17 Noroeste 0 -- -- 49
2020-01-09 13:00:00 12.4 6 Nordeste 10 Norte 0 -- -- 52
2020-01-09 12:00:00 10 6 Nordeste 10 Nordeste 0 -- -- 57
2020-01-09 11:00:00 7.1 8 Nordeste 13 Nordeste 0 -- -- 67
2020-01-09 10:00:00 5.7 4 Nordeste 9 Este 0 -- -- 73
2020-01-09 09:00:00 4.4 7 Este 10 Nordeste 0 -- -- 79
2020-01-09 08:00:00 4.4 6 Nordeste 10 Nordeste 0 -- -- 78
2020-01-09 07:00:00 4.8 8 Nordeste 11 Nordeste 0 -- -- 75
2020-01-09 06:00:00 5 4 Este 6 Nordeste 0 -- -- 76
2020-01-09 05:00:00 5.6 4 Este 10 Sudeste 0 -- -- 75
2020-01-09 04:00:00 5.9 6 Sudeste 8 Sudeste 0 -- -- 77
2020-01-09 03:00:00 6.4 5 Sudeste 12 Sur 0 -- -- 77
2020-01-09 02:00:00 7.1 5 Sur 13 Sur 0 -- -- 79
2020-01-09 01:00:00 7.5 9 Sur 13 Sur 0 -- -- 75
2020-01-09 00:00:00 8.4 7 Sur 17 Sur 0 -- -- 73
2020-01-08 23:00:00 8.9 13 Sur 17 Sur 0 -- -- 70
2020-01-08 22:00:00 9.5 9 Sur 12 Sur 0 -- -- 61
2020-01-08 21:00:00 11.4 6 Sur 9 Sudeste 0 -- -- 44
2020-01-08 20:00:00 12.6 0 Calma 4 Sudoeste 0 -- -- 36
2020-01-08 19:00:00 14 2 Oeste 6 Oeste 0 -- -- 31
2020-01-08 18:00:00 17 3 Oeste 6 Noroeste 0 -- -- 26
2020-01-08 17:00:00 17.2 5 Noroeste 9 Oeste 0 -- -- 21
2020-01-08 16:00:00 17.6 4 Oeste 9 Oeste 0 -- -- 22
2020-01-08 15:00:00 17.3 4 Noroeste 8 Noroeste 0 -- -- 26
2020-01-08 14:00:00 15 4 Nordeste 7 Sudoeste 0 -- -- 35
2020-01-08 13:00:00 12.4 2 Sudoeste 9 Nordeste 0 -- -- 42
2020-01-08 12:00:00 8.8 7 Nordeste 21 Nordeste 0 -- -- 52
2020-01-08 11:00:00 6.9 12 Nordeste 19 Nordeste 0 -- -- 57
2020-01-08 10:00:00 4.8 12 Nordeste 17 Este 0 -- -- 64
2020-01-08 09:00:00 3.3 8 Nordeste 15 Este 0 -- -- 72
2020-01-08 08:00:00 3.3 5 Este 15 Nordeste 0 -- -- 72
2020-01-08 07:00:00 3.6 10 Nordeste 17 Nordeste 0 -- -- 71
2020-01-08 06:00:00 3.9 10 Nordeste 16 Nordeste 0 -- -- 72
2020-01-08 05:00:00 4.5 12 Nordeste 14 Nordeste 0 -- -- 69
2020-01-08 04:00:00 5.5 6 Este 8 Este 0 -- -- 64
2020-01-08 03:00:00 5.8 4 Este 8 Nordeste 0 -- -- 63
2020-01-08 02:00:00 5.8 6 Nordeste 9 Nordeste 0 -- -- 65
2020-01-08 01:00:00 6.7 9 Nordeste 12 Nordeste 0 -- -- 63
2020-01-08 00:00:00 8.5 7 Este 9 Este 0 -- -- 51
2020-01-07 23:00:00 9.6 7 Este 10 Este 0 -- -- 49
2020-01-07 22:00:00 10 5 Sur 10 Sur 0 -- -- 48
2020-01-07 21:00:00 12.1 9 Sudeste -- -- 0 -- -- 42
2020-01-07 20:00:00 12.2 2 Nordeste 8 Norte 0 -- -- 41
2020-01-07 19:00:00 13.7 5 Norte 7 Norte 0 -- -- 37
2020-01-07 18:00:00 15.4 5 Noroeste 10 Oeste 0 -- -- 32
2020-01-07 17:00:00 17.4 6 Oeste 10 Oeste 0 -- -- 29
2020-01-07 16:00:00 17.8 3 Oeste 9 Noroeste 0 -- -- 26
2020-01-07 15:00:00 16.9 4 Noroeste 9 Oeste 0 -- -- 30
2020-01-07 14:00:00 15 5 Nordeste 9 Norte 0 -- -- 34
2020-01-07 13:00:00 13.4 2 Nordeste 8 Norte 0 -- -- 39
2020-01-07 12:00:00 10.3 3 Este 17 Nordeste 0 -- -- 54
2020-01-07 11:00:00 7.7 6 Nordeste 14 Nordeste 0 -- -- 62
2020-01-07 10:00:00 5.6 5 Este 13 Nordeste 0 -- -- 71
2020-01-07 09:00:00 3.8 2 Sudeste 14 Nordeste 0 -- -- 84
2020-01-07 08:00:00 4 9 Este 15 Nordeste 0 -- -- 81
2020-01-07 07:00:00 4.4 7 Este 11 Nordeste 0 -- -- 79
2020-01-07 06:00:00 3.5 9 Nordeste 11 Nordeste 0 -- -- 91
2020-01-07 05:00:00 3.9 2 Sur 11 Nordeste 0 -- -- 89
2020-01-07 04:00:00 4.6 9 Este 15 Nordeste 0 -- -- 89
2020-01-07 03:00:00 5.3 8 Este 10 Este 0 -- -- 88
2020-01-07 02:00:00 6 6 Sudeste 11 Sur 0 -- -- 83
2020-01-07 01:00:00 6.4 3 Sudeste 9 Este 0 -- -- 81
2020-01-07 00:00:00 7.2 7 Nordeste 9 Este 0 -- -- 78
2020-01-06 23:00:00 8.2 4 Este 11 Sur 0 -- -- 69
2020-01-06 22:00:00 9.1 7 Sudeste 9 Sudeste 0 -- -- 66
2020-01-06 21:00:00 9.3 4 Sudeste 7 Nordeste 0 -- -- 66
2020-01-06 20:00:00 10 3 Nordeste 12 Noroeste 0 -- -- 63
2020-01-06 19:00:00 11.3 3 Noroeste 6 Noroeste 0 -- -- 57
2020-01-06 18:00:00 13 4 Noroeste 10 Noroeste 0 -- -- 51
2020-01-06 17:00:00 14.4 4 Noroeste 9 Noroeste 0 -- -- 44
2020-01-06 16:00:00 15.1 2 Sudoeste 9 Sudoeste 0 -- -- 44
2020-01-06 15:00:00 13.8 3 Noroeste 15 Nordeste 0 -- -- 54
2020-01-06 14:00:00 12.9 4 Noroeste 11 Noroeste 0 -- -- 54
2020-01-06 13:00:00 11.4 6 Noroeste 10 Noroeste 0 -- -- 66
2020-01-06 12:00:00 9.4 3 Nordeste 7 Nordeste 0 -- -- 70
2020-01-06 11:00:00 6.7 0 Calma 12 Nordeste 0 -- -- 80
2020-01-06 10:00:00 4.8 8 Este 14 Este 0 -- -- 87